Time;durP1;ratioP1;P1;durP2;ratioP2;P2;SDS_P1;SDS_P2;PMS_P1;PMS_P2;Temp;Humidity;BMP_temperature;BMP_pressure;BME280_temperature;BME280_humidity;BME280_pressure;Samples;Min_cycle;Max_cycle;Signal;HPM_P1;HPM_P2
2021/12/09 00:00:33;;;;;;;50.15;31.45;;;0.00;1.00;;;;;;4980246;28;20229;-77
2021/12/09 00:03:05;;;;;;;47.58;28.05;;;0.00;1.00;;;;;;4976731;28;20223;-78
2021/12/09 00:05:35;;;;;;;45.53;29.23;;;0.00;1.00;;;;;;4982164;28;25258;-77
2021/12/09 00:08:02;;;;;;;45.67;29.48;;;0.00;1.00;;;;;;4970874;28;20224;-79
2021/12/09 00:10:29;;;;;;;52.13;29.45;;;0.10;1.00;;;;;;4979038;28;20223;-80
2021/12/09 00:12:56;;;;;;;44.70;29.05;;;0.20;1.00;;;;;;4973866;28;20239;-79
2021/12/09 00:15:23;;;;;;;43.00;28.50;;;0.10;1.00;;;;;;4972580;28;20361;-78
2021/12/09 00:17:50;;;;;;;45.85;29.90;;;0.10;1.00;;;;;;4973097;28;20211;-80
2021/12/09 00:20:18;;;;;;;49.65;30.65;;;0.10;1.00;;;;;;4961364;28;20231;-77
2021/12/09 00:22:47;;;;;;;52.00;30.85;;;0.10;1.00;;;;;;4964974;28;21010;-79
2021/12/09 00:25:15;;;;;;;47.88;31.02;;;0.10;1.00;;;;;;4966685;28;21868;-79
2021/12/09 00:27:42;;;;;;;51.50;34.22;;;0.10;1.00;;;;;;4973059;28;20235;-77
2021/12/09 00:30:12;;;;;;;48.38;30.38;;;0.10;1.00;;;;;;4973681;28;20282;-79
2021/12/09 00:32:41;;;;;;;52.63;33.08;;;0.10;1.00;;;;;;4976829;28;20226;-77
2021/12/09 00:35:13;;;;;;;57.58;33.03;;;0.10;1.00;;;;;;4965310;28;20243;-79
2021/12/09 00:37:50;;;;;;;52.33;33.10;;;0.10;1.00;;;;;;4971415;28;20240;-77
2021/12/09 00:40:19;;;;;;;53.78;32.58;;;0.00;1.00;;;;;;4973097;28;20246;-76
2021/12/09 00:42:45;;;;;;;60.17;33.28;;;0.00;1.00;;;;;;4974235;28;20306;-78
2021/12/09 00:45:12;;;;;;;53.58;30.23;;;0.00;1.00;;;;;;4959065;28;20235;-78
2021/12/09 00:47:39;;;;;;;62.42;33.80;;;0.00;1.00;;;;;;4978246;28;20319;-80
2021/12/09 00:50:07;;;;;;;56.22;31.15;;;-0.10;1.00;;;;;;4966119;28;20255;-79
2021/12/09 00:52:34;;;;;;;52.70;32.40;;;0.00;1.00;;;;;;4974680;28;21118;-78
2021/12/09 00:55:02;;;;;;;55.42;32.10;;;0.00;1.00;;;;;;4963726;28;20252;-78
2021/12/09 00:57:30;;;;;;;58.58;34.58;;;-0.10;1.00;;;;;;4961583;28;20910;-78
2021/12/09 00:59:58;;;;;;;54.63;33.90;;;-0.10;1.00;;;;;;4963459;28;20228;-77
2021/12/09 01:02:25;;;;;;;50.55;31.65;;;-0.10;1.00;;;;;;4964378;28;20783;-78
2021/12/09 01:04:52;;;;;;;54.15;32.40;;;-0.10;1.00;;;;;;4958934;28;20355;-79
2021/12/09 01:07:19;;;;;;;53.28;32.10;;;-0.10;1.00;;;;;;4947558;28;20251;-77
2021/12/09 01:09:45;;;;;;;52.95;30.55;;;-0.10;1.00;;;;;;4971842;28;21028;-77
2021/12/09 01:12:12;;;;;;;53.50;33.20;;;-0.10;1.00;;;;;;4969093;28;20342;-76
2021/12/09 01:14:40;;;;;;;53.80;32.33;;;-0.10;1.00;;;;;;4972789;28;20382;-76
2021/12/09 01:17:09;;;;;;;51.17;31.98;;;-0.20;1.00;;;;;;4980782;28;24563;-77
2021/12/09 01:19:37;;;;;;;55.55;34.50;;;-0.20;1.00;;;;;;4969783;28;20235;-79
2021/12/09 01:22:05;;;;;;;59.35;33.85;;;-0.20;1.00;;;;;;4969572;28;20224;-78
2021/12/09 01:24:31;;;;;;;60.22;35.97;;;-0.20;1.00;;;;;;4959300;28;20307;-79
2021/12/09 01:26:59;;;;;;;57.60;34.15;;;-0.30;1.00;;;;;;4963593;28;20235;-78
2021/12/09 01:29:33;;;;;;;58.67;34.53;;;-0.30;1.00;;;;;;4962982;28;20234;-81
2021/12/09 01:32:05;;;;;;;55.40;33.03;;;-0.30;1.00;;;;;;4965494;28;20226;-79
2021/12/09 01:34:32;;;;;;;58.45;34.55;;;-0.40;1.00;;;;;;4961485;28;20228;-77
2021/12/09 01:36:59;;;;;;;51.28;32.00;;;-0.40;1.00;;;;;;4962901;28;20305;-77
2021/12/09 01:39:28;;;;;;;61.75;34.60;;;-0.40;1.00;;;;;;4961910;28;20338;-79
2021/12/09 01:41:55;;;;;;;57.40;33.17;;;-0.30;1.00;;;;;;4967921;28;20228;-78
2021/12/09 01:44:22;;;;;;;61.58;37.35;;;-0.30;1.00;;;;;;4970203;28;20703;-76
2021/12/09 01:46:53;;;;;;;63.35;34.35;;;-0.30;1.00;;;;;;4974183;28;20215;-76
2021/12/09 01:49:22;;;;;;;58.65;34.95;;;-0.20;1.00;;;;;;4968442;28;20223;-78
2021/12/09 01:51:49;;;;;;;58.35;33.80;;;-0.20;1.00;;;;;;4972363;28;20275;-78
2021/12/09 01:54:17;;;;;;;61.60;35.03;;;-0.10;1.00;;;;;;4983611;28;20231;-78
2021/12/09 01:56:44;;;;;;;63.03;36.65;;;-0.10;1.00;;;;;;4974812;28;20224;-79
2021/12/09 01:59:11;;;;;;;57.28;33.10;;;-0.10;1.00;;;;;;4973544;28;20270;-77
2021/12/09 02:01:38;;;;;;;59.10;35.40;;;0.00;1.00;;;;;;4972669;28;20228;-76
2021/12/09 02:04:07;;;;;;;62.60;34.78;;;-0.10;1.00;;;;;;4972456;28;20308;-77
2021/12/09 02:06:40;;;;;;;55.63;34.40;;;-0.10;1.00;;;;;;4972757;28;20247;-78
2021/12/09 02:09:08;;;;;;;58.88;34.85;;;-0.10;1.00;;;;;;4980291;28;20308;-77
2021/12/09 02:11:39;;;;;;;57.45;34.17;;;0.00;1.00;;;;;;4972108;28;20224;-78
2021/12/09 02:14:07;;;;;;;49.47;32.45;;;0.00;1.00;;;;;;4984773;28;20314;-77
2021/12/09 02:16:35;;;;;;;52.25;32.47;;;0.00;1.00;;;;;;4981168;28;20309;-79
2021/12/09 02:19:02;;;;;;;58.25;34.97;;;0.00;1.00;;;;;;4980338;28;20323;-78
2021/12/09 02:21:32;;;;;;;56.13;33.15;;;0.00;1.00;;;;;;4970637;28;20399;-78
2021/12/09 02:24:03;;;;;;;57.72;33.60;;;0.10;1.00;;;;;;4969071;28;20222;-79
2021/12/09 02:26:33;;;;;;;57.63;35.20;;;0.10;1.00;;;;;;4974115;28;20235;-76
2021/12/09 02:29:01;;;;;;;59.00;35.33;;;0.10;1.00;;;;;;4968245;28;21552;-78
2021/12/09 02:31:30;;;;;;;59.58;34.70;;;0.00;1.00;;;;;;4969812;28;20350;-80
2021/12/09 02:33:58;;;;;;;54.45;32.03;;;0.00;1.00;;;;;;4965638;28;21407;-80
2021/12/09 02:36:25;;;;;;;53.85;33.88;;;0.00;1.00;;;;;;4968852;28;20318;-77
2021/12/09 02:38:54;;;;;;;59.40;35.17;;;0.00;1.00;;;;;;4967007;28;20314;-78
2021/12/09 02:41:24;;;;;;;56.83;36.97;;;0.00;1.00;;;;;;4966325;28;20218;-77
2021/12/09 02:43:54;;;;;;;57.10;34.65;;;0.00;1.00;;;;;;4967571;28;21564;-76
2021/12/09 02:46:23;;;;;;;52.22;33.88;;;0.00;1.00;;;;;;4974411;28;20239;-77
2021/12/09 02:48:49;;;;;;;58.42;34.55;;;0.10;1.00;;;;;;4984304;28;20263;-77
2021/12/09 02:51:17;;;;;;;58.70;37.15;;;0.10;1.00;;;;;;4975310;28;20234;-77
2021/12/09 02:53:44;;;;;;;57.45;34.05;;;0.00;1.00;;;;;;4969932;28;20257;-78
2021/12/09 02:56:13;;;;;;;57.05;34.25;;;0.00;1.00;;;;;;4971314;28;20224;-77
2021/12/09 02:58:40;;;;;;;58.00;33.90;;;0.00;1.00;;;;;;4969280;28;20219;-78
2021/12/09 03:01:13;;;;;;;61.45;35.85;;;-0.10;1.00;;;;;;4970010;28;20318;-78
2021/12/09 03:03:50;;;;;;;61.40;35.88;;;-0.10;1.00;;;;;;4982030;28;20273;-76
2021/12/09 03:06:18;;;;;;;64.25;35.55;;;-0.10;1.00;;;;;;4967699;28;20227;-78
2021/12/09 03:08:45;;;;;;;52.80;33.53;;;-0.10;1.00;;;;;;4973829;28;20236;-79
2021/12/09 03:11:19;;;;;;;62.28;36.33;;;-0.10;1.00;;;;;;4966636;28;20225;-77
2021/12/09 03:13:46;;;;;;;57.58;36.28;;;-0.10;1.00;;;;;;4967097;28;20240;-79
2021/12/09 03:16:14;;;;;;;63.10;35.45;;;-0.20;1.00;;;;;;4971451;28;20338;-78
2021/12/09 03:18:42;;;;;;;53.35;32.35;;;-0.10;1.00;;;;;;4975496;28;20247;-76
2021/12/09 03:21:15;;;;;;;60.35;35.78;;;-0.20;1.00;;;;;;4970222;28;20268;-77
2021/12/09 03:23:43;;;;;;;58.83;35.00;;;-0.20;1.00;;;;;;4967257;28;20671;-77
2021/12/09 03:26:10;;;;;;;63.78;35.15;;;-0.20;1.00;;;;;;4966750;28;20351;-79
2021/12/09 03:28:38;;;;;;;59.92;38.10;;;-0.20;1.00;;;;;;4965123;28;21234;-79
2021/12/09 03:31:05;;;;;;;56.67;33.15;;;-0.20;1.00;;;;;;4974064;28;20228;-76
2021/12/09 03:33:32;;;;;;;55.58;33.97;;;-0.20;1.00;;;;;;4975485;28;20251;-77
2021/12/09 03:35:59;;;;;;;62.80;34.75;;;-0.20;1.00;;;;;;4973762;28;20228;-81
2021/12/09 03:38:27;;;;;;;59.63;34.67;;;-0.10;1.00;;;;;;4971016;28;20231;-78
2021/12/09 03:40:55;;;;;;;54.13;35.22;;;-0.10;1.00;;;;;;4969445;28;20248;-78
2021/12/09 03:43:23;;;;;;;58.17;37.22;;;-0.10;1.00;;;;;;4971102;28;20232;-77
2021/12/09 03:45:54;;;;;;;57.72;37.03;;;-0.20;1.00;;;;;;4971456;28;20699;-79
2021/12/09 03:48:22;;;;;;;59.08;35.38;;;-0.20;1.00;;;;;;4971441;28;20750;-78
2021/12/09 03:50:50;;;;;;;62.92;36.13;;;-0.20;1.00;;;;;;4973060;28;20246;-78
2021/12/09 03:53:16;;;;;;;54.75;34.60;;;-0.10;1.00;;;;;;4974413;28;20675;-79
2021/12/09 03:55:43;;;;;;;55.30;34.60;;;0.00;1.00;;;;;;4969905;28;20244;-78
2021/12/09 03:58:10;;;;;;;52.88;33.33;;;0.00;1.00;;;;;;4968915;28;20235;-77
2021/12/09 04:00:37;;;;;;;56.70;34.03;;;0.00;1.00;;;;;;4969366;28;20779;-78
2021/12/09 04:03:05;;;;;;;57.03;34.10;;;-0.10;1.00;;;;;;4972992;28;20719;-76
2021/12/09 04:05:32;;;;;;;58.17;37.33;;;-0.10;1.00;;;;;;4967659;28;20232;-77
2021/12/09 04:07:59;;;;;;;57.80;34.50;;;-0.10;1.00;;;;;;4967553;28;20235;-80
2021/12/09 04:10:26;;;;;;;53.22;32.67;;;-0.10;1.00;;;;;;4969467;28;20311;-78
2021/12/09 04:13:04;;;;;;;56.00;35.83;;;0.00;1.00;;;;;;4974522;28;21054;-77
2021/12/09 04:15:32;;;;;;;58.58;33.72;;;0.00;1.00;;;;;;4987847;28;20297;-77
2021/12/09 04:17:58;;;;;;;56.28;34.92;;;0.00;1.00;;;;;;4984270;28;20315;-78
2021/12/09 04:20:27;;;;;;;61.22;33.97;;;0.00;1.00;;;;;;4975100;28;20223;-79
2021/12/09 04:22:55;;;;;;;56.03;34.70;;;0.00;1.00;;;;;;4974966;28;20267;-78
2021/12/09 04:25:24;;;;;;;61.17;33.65;;;0.00;1.00;;;;;;4975064;28;20232;-78
2021/12/09 04:27:53;;;;;;;54.95;33.63;;;0.00;1.00;;;;;;4978799;28;20584;-77
2021/12/09 04:30:20;;;;;;;65.45;37.53;;;0.00;1.00;;;;;;4971056;28;21597;-80
2021/12/09 04:32:47;;;;;;;58.13;35.80;;;0.00;1.00;;;;;;4970284;28;21058;-78
2021/12/09 04:35:14;;;;;;;61.20;35.63;;;0.00;1.00;;;;;;4971545;28;20215;-77
2021/12/09 04:37:42;;;;;;;60.05;33.15;;;0.00;1.00;;;;;;4968757;28;20286;-78
2021/12/09 04:40:12;;;;;;;56.97;33.33;;;0.10;1.00;;;;;;4977167;28;20369;-80
2021/12/09 04:42:39;;;;;;;56.40;34.95;;;0.10;1.00;;;;;;4972703;28;20233;-77
2021/12/09 04:45:08;;;;;;;56.05;34.85;;;0.10;1.00;;;;;;4963615;28;20232;-78
2021/12/09 04:47:35;;;;;;;58.17;35.78;;;0.00;1.00;;;;;;4965599;28;20228;-79
2021/12/09 04:50:02;;;;;;;54.42;34.35;;;-0.10;1.00;;;;;;4972075;28;22254;-77
2021/12/09 04:52:29;;;;;;;51.75;32.85;;;-0.10;1.00;;;;;;4970294;28;20227;-80
2021/12/09 04:54:58;;;;;;;57.42;35.10;;;-0.20;1.00;;;;;;4965728;28;20302;-77
2021/12/09 04:57:25;;;;;;;49.78;33.35;;;-0.30;1.00;;;;;;4969533;28;21117;-78
2021/12/09 04:59:52;;;;;;;59.40;34.80;;;-0.20;1.00;;;;;;4971997;28;20258;-79
2021/12/09 05:02:28;;;;;;;62.13;36.38;;;-0.20;1.00;;;;;;4969031;28;20719;-77
2021/12/09 05:04:55;;;;;;;58.72;35.78;;;-0.20;1.00;;;;;;4972069;28;20211;-78
2021/12/09 05:07:22;;;;;;;54.75;32.53;;;-0.10;1.00;;;;;;4975034;28;20298;-77
2021/12/09 05:09:51;;;;;;;57.03;35.08;;;0.00;1.00;;;;;;4973964;28;20232;-77
2021/12/09 05:12:22;;;;;;;56.97;34.17;;;-0.10;1.00;;;;;;4978042;28;20228;-80
2021/12/09 05:14:50;;;;;;;56.13;34.63;;;0.00;1.00;;;;;;4979261;28;20316;-79
2021/12/09 05:17:18;;;;;;;55.85;34.00;;;0.00;1.00;;;;;;4976694;28;20296;-79
2021/12/09 05:19:46;;;;;;;56.50;34.00;;;0.00;1.00;;;;;;4976059;28;20293;-79
2021/12/09 05:22:16;;;;;;;56.05;35.40;;;0.00;1.00;;;;;;4974529;28;20243;-79
2021/12/09 05:24:44;;;;;;;55.75;34.85;;;0.00;1.00;;;;;;4991338;28;21199;-78
2021/12/09 05:27:13;;;;;;;62.70;35.40;;;0.00;1.00;;;;;;4981523;28;20700;-77
2021/12/09 05:29:43;;;;;;;61.22;33.53;;;0.00;1.00;;;;;;4983774;28;20241;-76
2021/12/09 05:32:13;;;;;;;53.03;33.95;;;0.00;1.00;;;;;;4984124;28;20280;-83
2021/12/09 05:34:44;;;;;;;59.75;33.80;;;0.00;1.00;;;;;;4983967;28;20215;-81
2021/12/09 05:37:16;;;;;;;61.97;36.95;;;0.00;1.00;;;;;;4986834;28;20263;-84
2021/12/09 05:39:45;;;;;;;61.95;36.20;;;-0.10;1.00;;;;;;4980990;28;21539;-84
2021/12/09 05:42:15;;;;;;;56.63;34.53;;;0.00;1.00;;;;;;4979322;28;20236;-85
2021/12/09 05:44:44;;;;;;;56.97;34.10;;;0.00;1.00;;;;;;4976940;28;20259;-82
2021/12/09 05:47:12;;;;;;;55.90;32.00;;;0.00;1.00;;;;;;4986974;28;20703;-80
2021/12/09 05:49:41;;;;;;;56.80;35.00;;;0.00;1.00;;;;;;4997534;28;20243;-83
2021/12/09 05:52:12;;;;;;;53.47;31.45;;;0.00;1.00;;;;;;4983717;28;20220;-79
2021/12/09 05:54:39;;;;;;;54.83;35.85;;;0.00;1.00;;;;;;4991645;28;20251;-78
2021/12/09 05:57:08;;;;;;;54.40;34.85;;;0.00;1.00;;;;;;4986272;28;20238;-81
2021/12/09 05:59:41;;;;;;;47.90;32.20;;;0.00;1.00;;;;;;4979560;28;20240;-80
2021/12/09 06:02:11;;;;;;;52.88;34.20;;;0.10;1.00;;;;;;4978459;28;20238;-81
2021/12/09 06:04:38;;;;;;;62.97;35.55;;;0.20;1.00;;;;;;4978437;28;20223;-78
2021/12/09 06:07:08;;;;;;;56.22;34.78;;;0.20;1.00;;;;;;4977763;28;20223;-79
2021/12/09 06:09:35;;;;;;;61.17;36.70;;;0.20;1.00;;;;;;4971769;28;20243;-79
2021/12/09 06:12:04;;;;;;;55.67;36.05;;;0.20;1.00;;;;;;4971247;28;21826;-82
2021/12/09 06:14:32;;;;;;;59.75;36.80;;;0.10;1.00;;;;;;4972146;28;20239;-79
2021/12/09 06:16:59;;;;;;;54.08;33.67;;;0.10;1.00;;;;;;4972761;28;20262;-82
2021/12/09 06:19:27;;;;;;;55.33;33.38;;;0.00;1.00;;;;;;4972701;28;20235;-82
2021/12/09 06:21:54;;;;;;;60.47;35.50;;;0.10;1.00;;;;;;4979449;28;20426;-78
2021/12/09 06:24:23;;;;;;;63.08;35.47;;;0.10;1.00;;;;;;4973015;28;20324;-80
2021/12/09 06:26:50;;;;;;;74.22;47.33;;;0.10;1.00;;;;;;4974657;28;20255;-80
2021/12/09 06:29:17;;;;;;;60.35;35.40;;;0.20;1.00;;;;;;4970461;28;20231;-81
2021/12/09 06:31:44;;;;;;;57.45;36.13;;;0.20;1.00;;;;;;4976613;28;20303;-80
2021/12/09 06:34:12;;;;;;;60.97;35.97;;;0.20;1.00;;;;;;4965906;28;20232;-77
2021/12/09 06:36:42;;;;;;;58.88;35.80;;;0.20;1.00;;;;;;4974474;28;20231;-76
2021/12/09 06:39:12;;;;;;;58.38;35.53;;;0.30;1.00;;;;;;4970254;28;20242;-82
2021/12/09 06:41:39;;;;;;;69.47;37.80;;;0.30;1.00;;;;;;4983134;28;20235;-81
2021/12/09 06:44:07;;;;;;;64.80;36.20;;;0.30;1.00;;;;;;4974906;28;20290;-78
2021/12/09 06:46:34;;;;;;;61.53;36.42;;;0.30;1.00;;;;;;4984958;28;20238;-79
2021/12/09 06:49:02;;;;;;;54.78;34.60;;;0.20;1.00;;;;;;4974050;28;21078;-82
2021/12/09 06:51:52;;;;;;;61.85;37.05;;;0.20;1.00;;;;;;4971445;28;20238;-83
2021/12/09 06:54:23;;;;;;;66.75;35.35;;;0.30;1.00;;;;;;4990696;28;20242;-82
2021/12/09 06:56:56;;;;;;;58.33;36.40;;;0.30;1.00;;;;;;4992923;28;20234;-81
2021/12/09 06:59:23;;;;;;;66.88;37.85;;;0.30;1.00;;;;;;4977289;28;20315;-82
2021/12/09 07:01:50;;;;;;;73.78;38.35;;;0.30;1.00;;;;;;4980933;28;20221;-81
2021/12/09 07:04:17;;;;;;;69.13;37.10;;;0.20;1.00;;;;;;4982122;28;20555;-80
2021/12/09 07:06:44;;;;;;;61.67;35.92;;;0.20;1.00;;;;;;4984019;28;20231;-81
2021/12/09 07:09:13;;;;;;;64.63;36.65;;;0.20;1.00;;;;;;4984180;28;20249;-85
2021/12/09 07:11:44;;;;;;;65.82;36.22;;;0.20;1.00;;;;;;4984579;28;20251;-80
2021/12/09 07:14:11;;;;;;;64.00;37.17;;;0.10;1.00;;;;;;4979169;28;20227;-82
2021/12/09 07:16:38;;;;;;;71.47;39.63;;;0.10;1.00;;;;;;4986431;28;20233;-78
2021/12/09 07:19:05;;;;;;;62.55;36.00;;;0.10;1.00;;;;;;4984093;28;20231;-83
2021/12/09 07:21:33;;;;;;;63.22;35.20;;;0.10;1.00;;;;;;4982739;28;20223;-81
2021/12/09 07:24:00;;;;;;;68.60;36.35;;;0.10;1.00;;;;;;4978749;28;20215;-83
2021/12/09 07:26:30;;;;;;;67.95;36.85;;;0.10;1.00;;;;;;4981769;28;20820;-84
2021/12/09 07:28:57;;;;;;;62.00;36.35;;;0.10;1.00;;;;;;4979594;28;20250;-82
2021/12/09 07:31:25;;;;;;;70.57;36.53;;;0.10;1.00;;;;;;4997078;28;20236;-82
2021/12/09 07:33:52;;;;;;;62.97;35.53;;;0.10;1.00;;;;;;4973902;28;20958;-77
2021/12/09 07:36:19;;;;;;;68.95;39.88;;;0.10;1.00;;;;;;4968673;28;20977;-78
2021/12/09 07:38:47;;;;;;;67.20;38.28;;;0.10;1.00;;;;;;4970226;28;20354;-77
2021/12/09 07:41:14;;;;;;;66.80;36.58;;;0.10;1.00;;;;;;4977797;28;20223;-74
2021/12/09 07:43:43;;;;;;;61.35;36.75;;;0.00;1.00;;;;;;4981662;28;20236;-78
2021/12/09 07:46:10;;;;;;;67.30;37.60;;;0.00;1.00;;;;;;4985245;28;20240;-77
2021/12/09 07:48:38;;;;;;;64.13;39.00;;;0.10;1.00;;;;;;4975576;28;20341;-77
2021/12/09 07:51:05;;;;;;;63.85;37.92;;;0.10;1.00;;;;;;4968073;28;20224;-77
2021/12/09 07:53:32;;;;;;;64.07;37.20;;;0.20;1.00;;;;;;4972092;28;20209;-78
2021/12/09 07:55:59;;;;;;;70.78;37.78;;;0.20;1.00;;;;;;4970011;28;20980;-77
2021/12/09 07:58:28;;;;;;;64.57;39.72;;;0.20;1.00;;;;;;4973026;28;20235;-76
2021/12/09 08:00:56;;;;;;;78.97;45.80;;;0.20;1.00;;;;;;4971862;28;20793;-75
2021/12/09 08:03:23;;;;;;;69.53;41.78;;;0.20;1.00;;;;;;4971394;28;20250;-76
2021/12/09 08:05:51;;;;;;;64.40;37.97;;;0.10;1.00;;;;;;4971565;28;20244;-78
2021/12/09 08:08:18;;;;;;;66.78;38.70;;;0.10;1.00;;;;;;4968133;28;20227;-76
2021/12/09 08:10:45;;;;;;;63.72;37.53;;;0.10;1.00;;;;;;4971757;28;21827;-79
2021/12/09 08:13:13;;;;;;;71.30;38.65;;;0.10;1.00;;;;;;4975231;28;21069;-75
2021/12/09 08:15:45;;;;;;;68.30;39.35;;;0.10;1.00;;;;;;4973779;28;20405;-76
2021/12/09 08:18:27;;;;;;;71.40;37.55;;;0.10;1.00;;;;;;4975929;28;20227;-77
2021/12/09 08:20:57;;;;;;;62.70;36.03;;;0.10;1.00;;;;;;4974203;28;20283;-79
2021/12/09 08:23:24;;;;;;;65.70;39.67;;;0.20;1.00;;;;;;4971968;28;20319;-78
2021/12/09 08:25:50;;;;;;;69.40;37.83;;;0.20;1.00;;;;;;4974489;28;21180;-76
2021/12/09 08:28:17;;;;;;;75.30;40.53;;;0.40;1.00;;;;;;4977826;28;20251;-78
2021/12/09 08:30:44;;;;;;;77.53;40.33;;;0.40;1.00;;;;;;4974612;28;20232;-77
2021/12/09 08:33:11;;;;;;;66.10;39.42;;;0.40;1.00;;;;;;4977732;28;20740;-77
2021/12/09 08:35:40;;;;;;;65.88;39.25;;;0.40;1.00;;;;;;4983344;28;20238;-78
2021/12/09 08:38:08;;;;;;;65.97;39.17;;;0.30;1.00;;;;;;5000707;28;20244;-75
2021/12/09 08:40:37;;;;;;;67.45;38.88;;;0.30;1.00;;;;;;5003444;28;20236;-75
2021/12/09 08:43:04;;;;;;;71.47;38.83;;;0.30;1.00;;;;;;4997195;28;20235;-75
2021/12/09 08:45:31;;;;;;;65.28;39.85;;;0.30;1.00;;;;;;4999182;28;20228;-75
2021/12/09 08:47:58;;;;;;;68.20;39.60;;;0.30;1.00;;;;;;4994795;28;20214;-77
2021/12/09 08:50:32;;;;;;;67.97;38.95;;;0.30;1.00;;;;;;4992244;28;20239;-77
2021/12/09 08:53:04;;;;;;;72.45;40.42;;;0.30;1.00;;;;;;4985023;28;20298;-76
2021/12/09 08:55:31;;;;;;;67.47;41.35;;;0.30;1.00;;;;;;4985442;28;20232;-76
2021/12/09 08:57:58;;;;;;;75.28;42.50;;;0.30;1.00;;;;;;4992789;28;20220;-78
2021/12/09 09:00:26;;;;;;;69.55;39.58;;;0.30;1.00;;;;;;4976669;28;20287;-78
2021/12/09 09:02:53;;;;;;;70.32;41.08;;;0.30;1.00;;;;;;4976629;28;20690;-79
2021/12/09 09:05:20;;;;;;;64.47;40.65;;;0.30;1.00;;;;;;4976701;28;20228;-78
2021/12/09 09:07:49;;;;;;;70.80;40.47;;;0.30;1.00;;;;;;4979639;28;20223;-75
2021/12/09 09:10:19;;;;;;;69.85;41.60;;;0.30;1.00;;;;;;4984544;28;20248;-78
2021/12/09 09:12:46;;;;;;;63.28;39.70;;;0.40;1.00;;;;;;4990375;28;20232;-77
2021/12/09 09:15:15;;;;;;;61.47;38.08;;;0.40;1.00;;;;;;4998204;28;20247;-75
2021/12/09 09:17:42;;;;;;;68.82;41.22;;;0.40;1.00;;;;;;4998358;28;20315;-76
2021/12/09 09:20:12;;;;;;;68.53;39.65;;;0.40;1.00;;;;;;4992906;28;21003;-74
2021/12/09 09:22:42;;;;;;;71.70;41.20;;;0.40;1.00;;;;;;4996196;28;20294;-79
2021/12/09 09:25:11;;;;;;;62.22;36.95;;;0.50;1.00;;;;;;5011085;28;20231;-81
2021/12/09 09:27:40;;;;;;;70.32;40.40;;;0.40;1.00;;;;;;4998811;28;20409;-80
2021/12/09 09:30:08;;;;;;;77.18;44.75;;;0.40;1.00;;;;;;5005300;28;20253;-78
2021/12/09 09:32:35;;;;;;;65.13;40.95;;;0.50;1.00;;;;;;5003287;28;20242;-77
2021/12/09 09:35:09;;;;;;;74.80;42.83;;;0.50;1.00;;;;;;5008616;28;20231;-79
2021/12/09 09:37:36;;;;;;;68.25;40.75;;;0.50;1.00;;;;;;5011108;28;20216;-78
2021/12/09 09:40:07;;;;;;;65.50;40.58;;;0.50;1.00;;;;;;5006464;28;20224;-80
2021/12/09 09:42:56;;;;;;;97.15;60.55;;;0.60;1.00;;;;;;5008710;28;20219;-79
2021/12/09 09:45:24;;;;;;;62.13;40.65;;;0.60;1.00;;;;;;5007669;28;20224;-78
2021/12/09 09:47:51;;;;;;;69.55;42.20;;;0.70;1.00;;;;;;5007503;28;20224;-80
2021/12/09 09:50:18;;;;;;;63.05;37.95;;;0.60;1.00;;;;;;5010639;28;21807;-78
2021/12/09 09:52:46;;;;;;;68.40;38.95;;;0.60;1.00;;;;;;5018717;28;20216;-80
2021/12/09 09:55:21;;;;;;;63.30;38.10;;;0.80;1.00;;;;;;5005756;28;20227;-77
2021/12/09 09:57:49;;;;;;;61.42;38.90;;;0.90;1.00;;;;;;5005921;28;20214;-79
2021/12/09 10:00:21;;;;;;;67.88;40.50;;;0.90;1.00;;;;;;5006748;28;20287;-80
2021/12/09 10:02:53;;;;;;;66.82;38.78;;;1.00;1.00;;;;;;5005762;28;20611;-80
2021/12/09 10:05:33;;;;;;;60.38;37.72;;;1.00;1.00;;;;;;5007070;28;20247;-81
2021/12/09 10:08:00;;;;;;;64.15;38.50;;;1.10;1.00;;;;;;5001976;28;20291;-78
2021/12/09 10:10:27;;;;;;;67.95;39.45;;;1.00;1.00;;;;;;5006392;28;20355;-77
2021/12/09 10:12:59;;;;;;;68.00;38.85;;;0.90;1.00;;;;;;5004579;28;20222;-77
2021/12/09 10:15:39;;;;;;;62.50;39.22;;;1.00;1.00;;;;;;5005507;28;20315;-78
2021/12/09 10:18:09;;;;;;;68.10;38.85;;;1.00;1.00;;;;;;5001771;28;20218;-82
2021/12/09 10:20:47;;;;;;;65.90;40.90;;;1.00;1.00;;;;;;5002086;28;20236;-78
2021/12/09 10:23:30;;;;;;;113.32;77.10;;;1.00;1.00;;;;;;4996317;28;20252;-79
2021/12/09 10:26:20;;;;;;;64.82;39.22;;;1.00;1.00;;;;;;4993337;28;20231;-77
2021/12/09 10:29:03;;;;;;;65.57;43.22;;;1.00;1.00;;;;;;4991476;28;20243;-80
2021/12/09 10:31:35;;;;;;;72.05;43.35;;;0.90;1.00;;;;;;5009783;28;20384;-81
2021/12/09 10:34:21;;;;;;;66.03;39.38;;;0.90;1.00;;;;;;4993044;28;20269;-77
2021/12/09 10:36:56;;;;;;;60.00;39.40;;;1.00;1.00;;;;;;4991667;28;20281;-79
2021/12/09 10:39:28;;;;;;;60.10;37.10;;;0.80;1.00;;;;;;4989594;28;20231;-80
2021/12/09 10:41:57;;;;;;;65.88;36.45;;;0.80;1.00;;;;;;4988938;28;20216;-78
2021/12/09 10:44:51;;;;;;;58.65;35.83;;;0.70;1.00;;;;;;4989904;28;20243;-80
2021/12/09 10:47:34;;;;;;;64.07;35.30;;;0.60;1.00;;;;;;4981321;28;20423;-79
2021/12/09 10:50:19;;;;;;;57.97;34.92;;;0.60;1.00;;;;;;4990475;28;20231;-80
2021/12/09 10:52:55;;;;;;;61.38;36.65;;;0.70;1.00;;;;;;4982508;28;23551;-78
2021/12/09 10:55:26;;;;;;;62.70;38.40;;;0.70;1.00;;;;;;4982540;28;20254;-80
2021/12/09 10:58:03;;;;;;;57.80;34.35;;;0.70;1.00;;;;;;4986138;28;20235;-81
2021/12/09 11:00:44;;;;;;;61.47;36.33;;;0.60;1.00;;;;;;4985052;28;20318;-82
2021/12/09 11:03:34;;;;;;;53.15;34.75;;;0.60;1.00;;;;;;4988954;28;20203;-79
2021/12/09 11:06:05;;;;;;;61.35;38.10;;;0.60;1.00;;;;;;4986916;28;20299;-78
2021/12/09 11:08:38;;;;;;;61.35;34.65;;;0.70;1.00;;;;;;4981931;28;20239;-80
2021/12/09 11:11:12;;;;;;;56.38;34.95;;;0.80;1.00;;;;;;4984102;28;20497;-78
2021/12/09 11:13:51;;;;;;;55.55;38.20;;;0.90;1.00;;;;;;4977886;28;20389;-81
2021/12/09 11:16:27;;;;;;;56.22;35.50;;;1.00;1.00;;;;;;4976861;28;20856;-81
2021/12/09 11:19:08;;;;;;;52.28;33.90;;;1.00;1.00;;;;;;4979517;28;20236;-82
2021/12/09 11:21:44;;;;;;;50.53;34.38;;;0.90;1.00;;;;;;4991392;28;20228;-79
2021/12/09 11:24:13;;;;;;;55.03;34.45;;;0.90;1.00;;;;;;5011407;28;20215;-79
2021/12/09 11:26:54;;;;;;;55.92;34.10;;;0.90;1.00;;;;;;4978988;28;20645;-80
2021/12/09 11:29:25;;;;;;;51.60;32.55;;;0.90;1.00;;;;;;4977754;28;21016;-81
2021/12/09 11:32:00;;;;;;;55.55;36.08;;;1.00;1.00;;;;;;4974451;28;20232;-80
2021/12/09 11:34:33;;;;;;;51.95;33.83;;;1.10;1.00;;;;;;4977849;28;20230;-80
2021/12/09 11:37:09;;;;;;;54.50;35.85;;;1.10;1.00;;;;;;4977517;28;20216;-79
2021/12/09 11:39:38;;;;;;;51.97;34.22;;;1.10;1.00;;;;;;4976916;28;20212;-80
2021/12/09 11:42:17;;;;;;;54.58;35.28;;;1.10;1.00;;;;;;4974934;28;20238;-79
2021/12/09 11:44:50;;;;;;;54.35;36.38;;;1.10;1.00;;;;;;4974208;28;20224;-79
2021/12/09 11:47:20;;;;;;;60.00;36.90;;;1.10;1.00;;;;;;4977955;28;20544;-79
2021/12/09 11:49:51;;;;;;;56.25;35.10;;;1.20;1.00;;;;;;4980525;28;20334;-81
2021/12/09 11:52:24;;;;;;;66.75;41.00;;;1.20;1.00;;;;;;4975067;28;20261;-80
2021/12/09 11:54:59;;;;;;;60.05;38.42;;;1.10;1.00;;;;;;4986380;28;20512;-83
2021/12/09 11:57:35;;;;;;;51.35;34.17;;;1.10;1.00;;;;;;4985493;28;20282;-80
2021/12/09 12:12:52;;;;;;;61.55;35.22;;;1.20;1.00;;;;;;4982121;28;20243;-79
2021/12/09 12:16:00;;;;;;;46.60;30.23;;;1.20;1.00;;;;;;4980958;28;20234;-83
2021/12/09 12:19:04;;;;;;;51.75;31.83;;;1.30;1.00;;;;;;4977743;28;21983;-84
2021/12/09 12:26:44;;;;;;;56.70;36.35;;;1.30;1.00;;;;;;5130682;23;20223;-80
2021/12/09 12:29:49;;;;;;;58.13;34.13;;;1.20;1.00;;;;;;5007423;28;20223;-79
2021/12/09 12:32:34;;;;;;;56.55;33.85;;;1.30;1.00;;;;;;4978415;28;20306;-82
2021/12/09 12:35:16;;;;;;;52.92;33.33;;;1.30;1.00;;;;;;4998066;28;20239;-83
2021/12/09 12:37:52;;;;;;;54.78;34.30;;;1.30;1.00;;;;;;4977238;28;20229;-80
2021/12/09 12:40:22;;;;;;;53.13;33.00;;;1.20;1.00;;;;;;4998821;28;20230;-80
2021/12/09 12:42:56;;;;;;;52.40;34.20;;;1.10;1.00;;;;;;5017726;28;20247;-81
2021/12/09 12:51:37;;;;;;;55.53;33.45;;;0.90;1.00;;;;;;4995073;28;20271;-81
2021/12/09 12:54:35;;;;;;;61.03;34.95;;;0.90;1.00;;;;;;5005967;28;20233;-83
2021/12/09 12:57:12;;;;;;;53.53;33.58;;;0.90;1.00;;;;;;5011254;28;20236;-80
2021/12/09 12:59:46;;;;;;;59.40;35.25;;;1.00;1.00;;;;;;4981118;28;20228;-81
2021/12/09 13:05:38;;;;;;;51.20;34.35;;;0.90;1.00;;;;;;5018065;28;20295;-79
2021/12/09 13:08:26;;;;;;;54.25;35.13;;;1.00;1.00;;;;;;5016624;28;20227;-82
2021/12/09 13:13:56;;;;;;;53.97;34.20;;;1.00;1.00;;;;;;4997152;28;20224;-79
2021/12/09 13:16:36;;;;;;;54.85;35.08;;;0.90;1.00;;;;;;4985559;28;20851;-80
2021/12/09 13:19:31;;;;;;;57.17;34.35;;;0.90;1.00;;;;;;4997865;28;20231;-83
2021/12/09 13:22:02;;;;;;;55.65;34.10;;;0.90;1.00;;;;;;4982929;28;20238;-81
2021/12/09 13:24:44;;;;;;;50.65;33.45;;;0.90;1.00;;;;;;4996947;28;20211;-81
2021/12/09 13:27:31;;;;;;;56.10;33.58;;;0.90;1.00;;;;;;4985517;28;20260;-81
2021/12/09 13:30:17;;;;;;;53.40;33.65;;;0.90;1.00;;;;;;4990275;28;21110;-81
2021/12/09 13:33:02;;;;;;;58.10;34.05;;;0.80;1.00;;;;;;4987316;28;20231;-80